Time;durP1;ratioP1;P1;durP2;ratioP2;P2;SDS_P1;SDS_P2;PMS_P1;PMS_P2;Temp;Humidity;BMP_temperature;BMP_pressure;BME280_temperature;BME280_humidity;BME280_pressure;Samples;Min_cycle;Max_cycle;Signal;HPM_P1;HPM_P2
2023/12/10 00:02:00;;;;;;;43.03;18.52;;;;;;;-0.29;100.00;97543.13;5102228;28;20032;-75
2023/12/10 00:04:25;;;;;;;46.65;21.20;;;;;;;-0.36;100.00;97538.88;5120572;27;20039;-74
2023/12/10 00:06:51;;;;;;;43.53;20.35;;;;;;;-0.26;100.00;97552.72;5107562;28;20024;-75
2023/12/10 00:09:17;;;;;;;46.47;21.30;;;;;;;-0.29;100.00;97544.88;5127913;27;20050;-75
2023/12/10 00:11:43;;;;;;;54.38;22.58;;;;;;;-0.21;100.00;97545.59;5125437;27;20516;-75
2023/12/10 00:14:08;;;;;;;51.65;21.88;;;;;;;-0.12;100.00;97537.53;5108510;27;20042;-73
2023/12/10 00:16:34;;;;;;;54.95;20.85;;;;;;;-0.16;100.00;97533.25;5110472;28;20032;-73
2023/12/10 00:19:00;;;;;;;52.38;19.38;;;;;;;-0.16;100.00;97531.50;5096056;28;20031;-74
2023/12/10 00:21:25;;;;;;;56.58;23.38;;;;;;;-0.19;100.00;97530.69;5122213;27;20511;-74
2023/12/10 00:23:51;;;;;;;47.13;21.88;;;;;;;-0.22;100.00;97528.13;5119519;27;20031;-75
2023/12/10 00:26:17;;;;;;;46.97;20.98;;;;;;;-0.08;100.00;97521.69;5108120;27;20034;-74
2023/12/10 00:28:43;;;;;;;51.72;22.17;;;;;;;-0.03;100.00;97524.19;5099408;28;20054;-74
2023/12/10 00:31:09;;;;;;;57.65;22.98;;;;;;;-0.05;100.00;97524.25;5115254;27;20060;-73
2023/12/10 00:33:35;;;;;;;50.08;22.85;;;;;;;-0.10;100.00;97523.47;5104742;28;20038;-73
2023/12/10 00:36:00;;;;;;;54.38;22.92;;;;;;;-0.16;100.00;97526.25;5100602;27;20041;-73
2023/12/10 00:38:26;;;;;;;47.58;21.13;;;;;;;-0.20;100.00;97516.66;5100676;27;20130;-74
2023/12/10 00:40:51;;;;;;;46.88;21.75;;;;;;;-0.26;100.00;97516.78;5102472;28;20034;-74
2023/12/10 00:43:17;;;;;;;46.40;20.90;;;;;;;-0.24;100.00;97515.00;5111470;27;20030;-73
2023/12/10 00:45:43;;;;;;;44.75;20.17;;;;;;;-0.21;100.00;97506.19;5121729;27;20034;-73
2023/12/10 00:48:10;;;;;;;40.10;19.83;;;;;;;-0.16;100.00;97510.47;5126214;27;20023;-74
2023/12/10 00:50:35;;;;;;;38.45;17.98;;;;;;;-0.10;100.00;97504.22;5113703;27;20019;-74
2023/12/10 00:53:03;;;;;;;40.70;18.83;;;;;;;-0.14;100.00;97510.41;5105631;28;20030;-74
2023/12/10 00:55:29;;;;;;;43.92;18.63;;;;;;;-0.06;100.00;97519.00;5125692;27;20034;-74
2023/12/10 00:57:54;;;;;;;67.47;28.42;;;;;;;-0.18;100.00;97514.88;5123744;27;20043;-75
2023/12/10 01:00:20;;;;;;;63.08;28.17;;;;;;;-0.23;100.00;97505.34;5110207;28;20039;-75
2023/12/10 01:02:46;;;;;;;63.67;26.35;;;;;;;-0.17;100.00;97505.22;5122642;28;20055;-75
2023/12/10 01:05:12;;;;;;;58.80;25.17;;;;;;;-0.16;100.00;97507.84;5097048;28;20414;-74
2023/12/10 01:07:37;;;;;;;62.03;24.77;;;;;;;-0.18;100.00;97508.75;5122435;28;20077;-73
2023/12/10 01:10:05;;;;;;;52.65;23.42;;;;;;;-0.08;100.00;97515.56;5105451;28;20114;-74
2023/12/10 01:12:36;;;;;;;52.38;23.55;;;;;;;-0.09;100.00;97508.56;5099624;28;20469;-74
2023/12/10 01:15:05;;;;;;;57.00;24.00;;;;;;;-0.06;100.00;97505.84;5109357;28;20034;-74
2023/12/10 01:17:34;;;;;;;56.20;23.35;;;;;;;0.06;100.00;97496.88;5115004;28;20039;-74
2023/12/10 01:20:00;;;;;;;47.55;22.27;;;;;;;0.06;100.00;97502.13;5098472;28;20027;-74
2023/12/10 01:22:26;;;;;;;53.97;22.80;;;;;;;-0.03;100.00;97497.91;5098441;27;20034;-74
2023/12/10 01:24:52;;;;;;;43.65;21.48;;;;;;;-0.05;100.00;97487.44;5120479;27;20031;-74
2023/12/10 01:27:21;;;;;;;53.38;23.42;;;;;;;0.02;100.00;97489.94;5105280;28;20034;-73
2023/12/10 01:29:47;;;;;;;58.55;22.63;;;;;;;-0.13;100.00;97481.50;5117815;27;20028;-74
2023/12/10 01:32:12;;;;;;;46.47;21.65;;;;;;;-0.05;100.00;97476.06;5108474;27;20159;-73
2023/12/10 01:34:38;;;;;;;43.15;20.88;;;;;;;0.06;100.00;97479.34;5116922;27;20034;-73
2023/12/10 01:37:04;;;;;;;48.85;21.30;;;;;;;0.05;100.00;97490.75;5114753;27;20118;-73
2023/12/10 01:39:32;;;;;;;46.10;21.10;;;;;;;-0.06;100.00;97472.56;5109237;28;20027;-74
2023/12/10 01:41:58;;;;;;;41.70;19.85;;;;;;;-0.16;100.00;97471.03;5100947;28;20491;-74
2023/12/10 01:44:23;;;;;;;42.90;19.23;;;;;;;-0.18;100.00;97471.94;5127017;27;20163;-74
2023/12/10 01:46:49;;;;;;;44.90;19.10;;;;;;;-0.22;100.00;97459.78;5108497;28;20096;-74
2023/12/10 01:49:15;;;;;;;41.08;17.23;;;;;;;-0.24;100.00;97467.69;5113412;28;20015;-75
2023/12/10 01:51:42;;;;;;;35.40;17.63;;;;;;;-0.31;100.00;97458.22;5100626;27;20039;-74
2023/12/10 01:54:11;;;;;;;37.50;16.77;;;;;;;-0.36;100.00;97469.72;5112853;27;20374;-74
2023/12/10 01:56:37;;;;;;;40.97;17.02;;;;;;;-0.41;100.00;97467.19;5100360;27;20426;-74
2023/12/10 01:59:02;;;;;;;41.05;17.10;;;;;;;-0.50;100.00;97464.75;5118475;27;20036;-73
2023/12/10 02:01:28;;;;;;;39.28;18.17;;;;;;;-0.40;100.00;97470.69;5099559;27;20051;-74
2023/12/10 02:03:54;;;;;;;42.78;17.95;;;;;;;-0.36;100.00;97467.94;5103329;28;20551;-75
2023/12/10 02:06:22;;;;;;;37.35;17.90;;;;;;;-0.30;100.00;97459.06;5112214;27;20031;-73
2023/12/10 02:08:47;;;;;;;48.17;20.30;;;;;;;-0.25;100.00;97465.13;5134992;27;20521;-74
2023/12/10 02:11:13;;;;;;;46.22;21.30;;;;;;;-0.22;100.00;97467.69;5109392;28;20043;-74
2023/12/10 02:13:39;;;;;;;51.63;22.92;;;;;;;-0.21;100.00;97466.75;5108667;28;20035;-75
2023/12/10 02:16:07;;;;;;;50.15;24.90;;;;;;;-0.19;100.00;97470.25;5104159;27;20087;-75
2023/12/10 02:18:33;;;;;;;46.83;22.88;;;;;;;-0.16;100.00;97471.03;5105248;27;20057;-74
2023/12/10 02:20:58;;;;;;;45.92;21.05;;;;;;;-0.18;100.00;97459.69;5128879;27;20023;-75
2023/12/10 02:23:24;;;;;;;42.92;20.27;;;;;;;-0.11;100.00;97468.31;5103957;28;20463;-74
2023/12/10 02:25:50;;;;;;;44.63;20.60;;;;;;;-0.07;100.00;97464.72;5128631;27;20410;-73
2023/12/10 02:28:22;;;;;;;54.22;22.38;;;;;;;-0.06;100.00;97448.03;5105129;27;20485;-74
2023/12/10 02:30:48;;;;;;;51.28;22.17;;;;;;;-0.17;100.00;97452.66;5129494;27;20051;-74
2023/12/10 02:33:13;;;;;;;48.88;21.55;;;;;;;-0.04;100.00;97441.00;5105362;27;20490;-74
2023/12/10 02:35:39;;;;;;;48.28;21.63;;;;;;;-0.14;100.00;97444.72;5119091;27;20028;-74
2023/12/10 02:38:05;;;;;;;52.03;21.27;;;;;;;-0.08;100.00;97439.31;5095931;27;20027;-75
2023/12/10 02:40:30;;;;;;;52.42;22.92;;;;;;;-0.09;100.00;97451.59;5099118;28;20054;-74
2023/12/10 02:42:56;;;;;;;46.90;20.95;;;;;;;-0.09;100.00;97453.34;5095461;28;20019;-74
2023/12/10 02:45:22;;;;;;;42.17;19.25;;;;;;;-0.26;100.00;97450.22;5102205;27;20531;-74
2023/12/10 02:47:47;;;;;;;45.90;19.73;;;;;;;-0.27;100.00;97451.13;5096766;28;20023;-74
2023/12/10 02:50:13;;;;;;;42.92;17.98;;;;;;;-0.20;100.00;97437.84;5128995;27;20096;-74
2023/12/10 02:52:39;;;;;;;44.58;19.00;;;;;;;-0.27;100.00;97435.34;5112252;28;20031;-74
2023/12/10 02:55:05;;;;;;;49.92;22.13;;;;;;;-0.16;100.00;97439.50;5120822;27;20494;-75
2023/12/10 02:57:31;;;;;;;53.97;23.25;;;;;;;-0.08;100.00;97444.59;5111953;28;20043;-74
2023/12/10 02:59:57;;;;;;;44.97;20.55;;;;;;;-0.12;100.00;97445.53;5112081;28;20102;-73
2023/12/10 03:02:22;;;;;;;51.30;20.20;;;;;;;-0.08;100.00;97447.22;5128148;27;20502;-74
2023/12/10 03:04:48;;;;;;;53.28;22.38;;;;;;;-0.08;100.00;97447.22;5115367;27;20126;-74
2023/12/10 03:07:14;;;;;;;51.72;22.75;;;;;;;-0.02;100.00;97447.06;5123833;27;20035;-75
2023/12/10 03:09:39;;;;;;;51.30;22.40;;;;;;;-0.08;100.00;97444.59;5108161;27;20061;-74
2023/12/10 03:12:05;;;;;;;54.08;23.05;;;;;;;0.02;100.00;97437.38;5114279;27;20027;-76
2023/12/10 03:14:31;;;;;;;46.97;20.65;;;;;;;-0.13;100.00;97439.44;5106257;27;20102;-75
2023/12/10 03:16:57;;;;;;;43.42;20.52;;;;;;;-0.15;100.00;97429.84;5115503;27;20035;-74
2023/12/10 03:19:22;;;;;;;45.72;20.10;;;;;;;-0.04;100.00;97443.63;5123320;27;20103;-75
2023/12/10 03:21:48;;;;;;;49.72;20.23;;;;;;;-0.11;100.00;97439.41;5113630;27;20674;-75
2023/12/10 03:24:13;;;;;;;53.40;22.33;;;;;;;-0.20;100.00;97445.72;5123279;27;20051;-74
2023/12/10 03:26:39;;;;;;;52.25;22.88;;;;;;;-0.15;100.00;97440.34;5109574;28;20395;-74
2023/12/10 03:29:05;;;;;;;52.38;24.60;;;;;;;-0.21;100.00;97441.34;5094454;28;20107;-74
2023/12/10 03:31:31;;;;;;;53.25;23.70;;;;;;;-0.24;100.00;97435.28;5103611;27;20031;-74
2023/12/10 03:33:56;;;;;;;56.03;25.13;;;;;;;-0.28;100.00;97437.16;5107240;28;20031;-74
2023/12/10 03:36:22;;;;;;;78.72;33.10;;;;;;;-0.28;100.00;97433.66;5109691;27;20023;-74
2023/12/10 03:38:48;;;;;;;68.88;28.08;;;;;;;-0.24;100.00;97446.66;5108892;27;20075;-75
2023/12/10 03:41:13;;;;;;;58.17;23.65;;;;;;;-0.32;100.00;97442.47;5098865;27;20064;-75
2023/12/10 03:43:39;;;;;;;42.30;19.48;;;;;;;-0.62;100.00;97438.72;5115792;27;20031;-75
2023/12/10 03:46:05;;;;;;;48.08;20.42;;;;;;;-0.53;100.00;97448.19;5104465;27;20019;-74
2023/12/10 03:48:30;;;;;;;42.63;19.00;;;;;;;-0.58;100.00;97435.13;5120861;27;20116;-74
2023/12/10 03:50:56;;;;;;;48.13;20.02;;;;;;;-0.59;100.00;97442.16;5125106;27;20019;-74
2023/12/10 03:53:22;;;;;;;46.10;20.23;;;;;;;-0.62;100.00;97436.97;5121698;27;20080;-74
2023/12/10 03:55:48;;;;;;;47.53;19.63;;;;;;;-0.58;100.00;97436.00;5117022;27;20427;-73
2023/12/10 03:58:14;;;;;;;44.58;18.38;;;;;;;-0.63;100.00;97447.50;5102729;27;20058;-74
2023/12/10 04:00:39;;;;;;;45.28;20.83;;;;;;;-0.68;100.00;97431.81;5119648;27;20084;-74
2023/12/10 04:03:05;;;;;;;42.15;19.50;;;;;;;-0.63;100.00;97447.50;5097974;28;20045;-72
2023/12/10 04:05:31;;;;;;;44.97;19.88;;;;;;;-0.68;100.00;97444.09;5104622;27;20031;-76
2023/12/10 04:07:56;;;;;;;48.22;20.05;;;;;;;-0.65;100.00;97444.91;5096479;28;20054;-74
2023/12/10 04:10:22;;;;;;;51.85;22.65;;;;;;;-0.72;100.00;97432.78;5127505;27;20110;-74
2023/12/10 04:12:48;;;;;;;53.67;22.15;;;;;;;-0.61;100.00;97422.94;5119009;27;20043;-74
2023/12/10 04:15:13;;;;;;;48.05;21.80;;;;;;;-0.65;100.00;97423.03;5124541;27;20365;-74
2023/12/10 04:17:39;;;;;;;46.10;20.88;;;;;;;-0.61;100.00;97430.81;5115927;27;20531;-74
2023/12/10 04:20:06;;;;;;;53.10;20.92;;;;;;;-0.61;100.00;97430.81;5106522;27;20035;-74
2023/12/10 04:22:32;;;;;;;46.38;19.75;;;;;;;-0.77;100.00;97424.13;5110329;28;20092;-74
2023/12/10 04:24:57;;;;;;;47.58;20.65;;;;;;;-0.86;100.00;97426.94;5110140;28;20035;-74
2023/12/10 04:27:23;;;;;;;47.10;20.08;;;;;;;-0.78;100.00;97432.91;5121685;27;20027;-74
2023/12/10 04:29:50;;;;;;;56.50;26.23;;;;;;;-0.82;100.00;97433.84;5116364;27;20030;-74
2023/12/10 04:32:16;;;;;;;63.65;26.73;;;;;;;-0.80;100.00;97429.44;5113916;27;20027;-74
2023/12/10 04:34:42;;;;;;;64.85;26.35;;;;;;;-0.87;100.00;97430.47;5104241;28;20111;-74
2023/12/10 04:37:08;;;;;;;71.80;28.45;;;;;;;-0.94;100.00;97426.22;5127408;27;20095;-74
2023/12/10 04:39:33;;;;;;;67.93;26.27;;;;;;;-1.01;100.00;97414.09;5128546;27;20513;-74
2023/12/10 04:41:59;;;;;;;72.38;28.35;;;;;;;-0.98;100.00;97424.53;5110081;28;20115;-75
2023/12/10 04:44:25;;;;;;;67.80;26.42;;;;;;;-0.87;100.00;97430.47;5104364;28;20153;-75
2023/12/10 04:46:51;;;;;;;66.95;26.63;;;;;;;-0.96;100.00;97422.78;5121246;27;20027;-75
2023/12/10 04:49:17;;;;;;;67.63;24.75;;;;;;;-0.93;100.00;97435.84;5109680;28;20019;-74
2023/12/10 04:51:42;;;;;;;56.13;24.02;;;;;;;-0.88;100.00;97433.09;5099091;27;20038;-74
2023/12/10 04:54:08;;;;;;;61.50;26.25;;;;;;;-0.82;100.00;97439.09;5106199;28;20059;-74
2023/12/10 04:56:33;;;;;;;62.58;25.80;;;;;;;-0.90;100.00;97438.41;5106714;28;20055;-75
2023/12/10 04:58:59;;;;;;;55.50;24.30;;;;;;;-0.71;100.00;97450.25;5123650;27;20034;-72
2023/12/10 05:01:25;;;;;;;57.58;24.40;;;;;;;-0.70;100.00;97452.00;5107370;28;20100;-75
2023/12/10 05:03:51;;;;;;;51.00;23.13;;;;;;;-0.74;100.00;97449.47;5103683;28;20302;-74
2023/12/10 05:06:16;;;;;;;69.00;29.02;;;;;;;-0.82;100.00;97436.47;5102977;28;20054;-74
2023/12/10 05:08:42;;;;;;;62.30;26.65;;;;;;;-0.88;100.00;97443.59;5122014;28;20077;-74
2023/12/10 05:11:08;;;;;;;64.20;26.90;;;;;;;-0.95;100.00;97445.47;5101020;28;20399;-74
2023/12/10 05:13:34;;;;;;;69.93;28.02;;;;;;;-0.94;100.00;97451.59;5095328;28;20432;-74
2023/12/10 05:15:59;;;;;;;64.43;25.92;;;;;;;-0.94;100.00;97431.47;5103879;28;20038;-74
2023/12/10 05:18:25;;;;;;;72.40;27.23;;;;;;;-0.79;100.00;97456.56;5115659;28;20031;-75
2023/12/10 05:20:51;;;;;;;65.75;24.80;;;;;;;-0.91;100.00;97439.28;5096177;28;20035;-73
2023/12/10 05:23:16;;;;;;;76.88;24.42;;;;;;;-0.79;100.00;97456.56;5120364;28;20111;-73
2023/12/10 05:25:42;;;;;;;52.05;17.88;;;;;;;-0.82;100.00;97446.97;5126668;28;20510;-73
2023/12/10 05:28:08;;;;;;;67.43;16.58;;;;;;;-0.94;100.00;97426.22;5095281;28;20079;-74
2023/12/10 05:30:33;;;;;;;101.05;14.07;;;;;;;-0.98;100.00;97445.53;5104522;28;20027;-73
2023/12/10 05:32:59;;;;;;;67.68;13.45;;;;;;;-0.98;100.00;97450.78;5107320;28;20031;-73
2023/12/10 05:35:24;;;;;;;88.25;15.30;;;;;;;-0.99;100.00;97448.19;5101975;28;20464;-73
2023/12/10 05:37:50;;;;;;;87.18;17.33;;;;;;;-1.04;100.00;97440.41;5108855;28;20036;-72
2023/12/10 05:40:16;;;;;;;45.38;15.18;;;;;;;-1.03;100.00;97451.75;5106831;28;20020;-75
2023/12/10 05:42:41;;;;;;;74.97;22.75;;;;;;;-1.05;100.00;97443.94;5108170;28;20194;-73
2023/12/10 05:45:07;;;;;;;70.57;16.30;;;;;;;-0.99;100.00;97441.19;5099512;28;20054;-73
2023/12/10 05:47:33;;;;;;;46.10;18.85;;;;;;;-0.92;100.00;97441.94;5106590;28;20316;-72
2023/12/10 05:49:59;;;;;;;40.00;15.20;;;;;;;-0.81;100.00;97442.59;5098895;28;20023;-73
2023/12/10 05:52:24;;;;;;;131.43;18.73;;;;;;;-0.81;100.00;97448.72;5108446;28;20115;-76
2023/12/10 05:54:50;;;;;;;52.35;17.38;;;;;;;-0.75;100.00;97445.97;5116363;27;20050;-74
2023/12/10 05:57:16;;;;;;;66.43;19.88;;;;;;;-0.63;100.00;97442.25;5093073;28;20147;-75
2023/12/10 05:59:43;;;;;;;124.70;21.85;;;;;;;-0.74;100.00;97444.22;5105209;28;20467;-74
2023/12/10 06:02:08;;;;;;;74.20;20.35;;;;;;;-0.82;100.00;97448.72;5094237;28;20027;-74
2023/12/10 06:04:34;;;;;;;828.35;56.38;;;;;;;-0.80;100.00;97444.34;5098556;28;20023;-74
2023/12/10 06:07:00;;;;;;;356.10;28.55;;;;;;;-0.78;100.00;97438.16;5111304;27;20019;-74
2023/12/10 06:09:25;;;;;;;84.65;17.17;;;;;;;-0.70;100.00;97435.38;5115542;27;20474;-75
2023/12/10 06:11:53;;;;;;;71.68;22.45;;;;;;;-0.73;100.00;97417.06;5104835;27;20126;-74
2023/12/10 06:14:19;;;;;;;96.55;20.48;;;;;;;-0.55;100.00;97441.19;5109014;27;20080;-74
2023/12/10 06:16:45;;;;;;;86.32;19.38;;;;;;;-0.57;100.00;97437.75;5122352;27;20483;-75
2023/12/10 06:19:10;;;;;;;151.77;22.77;;;;;;;-0.71;100.00;97431.88;5112862;27;20023;-74
2023/12/10 06:21:37;;;;;;;93.20;24.05;;;;;;;-0.59;100.00;97434.28;5115231;27;20374;-74
2023/12/10 06:24:04;;;;;;;209.48;36.42;;;;;;;-0.48;100.00;97447.19;5104157;28;20048;-73
2023/12/10 06:26:30;;;;;;;139.50;26.13;;;;;;;-0.71;100.00;97445.00;5112526;27;20034;-74
2023/12/10 06:28:55;;;;;;;133.93;24.20;;;;;;;-0.52;100.00;97445.50;5113332;27;20024;-75
2023/12/10 06:31:21;;;;;;;235.00;33.92;;;;;;;-0.61;100.00;97446.56;5100098;28;20062;-75
2023/12/10 06:33:47;;;;;;;178.75;33.60;;;;;;;-0.63;100.00;97456.25;5094732;28;20031;-75
2023/12/10 06:36:13;;;;;;;175.15;32.85;;;;;;;-0.53;100.00;97441.16;5094869;28;20031;-75
2023/12/10 06:38:39;;;;;;;233.45;34.45;;;;;;;-0.28;100.00;97458.16;5098826;28;20043;-75
2023/12/10 06:41:06;;;;;;;221.40;43.72;;;;;;;-0.36;100.00;97461.81;5098824;28;20487;-74
2023/12/10 06:43:31;;;;;;;154.80;38.88;;;;;;;-0.23;100.00;97455.44;5104387;27;20019;-75
2023/12/10 06:46:00;;;;;;;180.05;42.63;;;;;;;-0.12;100.00;97459.53;5126656;27;20030;-75
2023/12/10 06:48:26;;;;;;;112.85;33.45;;;;;;;-0.09;100.00;97471.75;5112570;27;20027;-75
2023/12/10 06:50:52;;;;;;;122.38;32.70;;;;;;;0.41;100.00;97463.63;5106411;28;20088;-74
2023/12/10 06:53:18;;;;;;;106.75;29.10;;;;;;;0.23;100.00;97474.56;5107132;28;20398;-73
2023/12/10 06:55:45;;;;;;;117.78;26.52;;;;;;;0.34;100.00;97477.78;5109567;28;20024;-72
2023/12/10 06:58:11;;;;;;;90.75;30.38;;;;;;;0.58;100.00;97473.75;5118345;27;20031;-74
2023/12/10 07:00:36;;;;;;;84.22;28.17;;;;;;;0.62;100.00;97477.13;5097660;27;20047;-74
2023/12/10 07:03:02;;;;;;;76.28;27.60;;;;;;;0.73;100.00;97468.09;5100793;28;20107;-73
2023/12/10 07:05:28;;;;;;;84.15;27.83;;;;;;;0.80;100.00;97479.34;5107165;27;20174;-74
2023/12/10 07:07:53;;;;;;;90.53;30.48;;;;;;;0.80;100.00;97468.81;5127593;27;20023;-77
2023/12/10 07:10:19;;;;;;;211.07;95.90;;;;;;;0.75;100.00;97483.84;5119900;27;20030;-79
2023/12/10 07:12:45;;;;;;;164.43;43.25;;;;;;;0.78;100.00;97491.66;5102746;28;20039;-79
2023/12/10 07:15:10;;;;;;;133.65;41.72;;;;;;;0.77;100.00;97482.06;5108853;27;20015;-87
2023/12/10 07:17:36;;;;;;;146.02;51.22;;;;;;;1.00;100.00;97471.81;5123090;27;20028;-78
2023/12/10 07:20:03;;;;;;;119.80;38.17;;;;;;;0.86;100.00;97476.56;5127484;27;20023;-78
2023/12/10 07:22:28;;;;;;;196.07;67.22;;;;;;;1.22;100.00;97459.81;5118259;27;20055;-78
2023/12/10 07:24:54;;;;;;;123.43;43.30;;;;;;;1.27;100.00;97465.81;5105909;27;20457;-79
2023/12/10 07:27:19;;;;;;;108.20;30.70;;;;;;;1.32;100.00;97457.81;5107668;27;20110;-80
2023/12/10 07:29:45;;;;;;;113.57;30.52;;;;;;;0.90;100.00;97460.66;5104752;27;20034;-80
2023/12/10 07:32:11;;;;;;;93.50;30.55;;;;;;;1.22;100.00;97474.75;5110130;27;20069;-78
2023/12/10 07:34:36;;;;;;;103.65;31.77;;;;;;;1.15;100.00;97462.63;5104840;28;20024;-78
2023/12/10 07:37:02;;;;;;;85.47;30.40;;;;;;;1.37;100.00;97451.50;5098048;27;20062;-77
2023/12/10 07:39:28;;;;;;;62.95;25.98;;;;;;;1.54;100.00;97457.16;5127232;27;20033;-78
2023/12/10 07:41:54;;;;;;;96.53;31.70;;;;;;;1.68;100.00;97454.16;5105588;27;20023;-77
2023/12/10 07:44:20;;;;;;;74.35;25.85;;;;;;;1.74;100.00;97447.81;5122829;27;20102;-79
2023/12/10 07:46:45;;;;;;;91.00;27.92;;;;;;;1.99;100.00;97443.56;5099867;28;20039;-81
2023/12/10 07:49:11;;;;;;;85.38;26.25;;;;;;;2.14;100.00;97445.75;5111569;27;20022;-71
2023/12/10 07:51:36;;;;;;;78.32;31.25;;;;;;;2.22;100.00;97429.66;5126593;27;20034;-77
2023/12/10 07:54:02;;;;;;;87.65;31.95;;;;;;;2.16;100.00;97442.13;5131864;27;20034;-79
2023/12/10 07:56:28;;;;;;;91.47;33.55;;;;;;;1.77;100.00;97431.91;5114643;27;20126;-79
2023/12/10 07:58:53;;;;;;;91.85;32.83;;;;;;;1.35;100.00;97436.66;5125036;27;20430;-80
2023/12/10 08:01:19;;;;;;;99.72;33.72;;;;;;;1.34;100.00;97437.53;5103849;27;20032;-78
2023/12/10 08:03:44;;;;;;;100.15;34.92;;;;;;;1.40;100.00;97450.53;5101089;27;20123;-79
2023/12/10 08:06:10;;;;;;;96.47;38.95;;;;;;;2.08;100.00;97444.16;5126772;27;20020;-78
2023/12/10 08:08:36;;;;;;;115.18;42.88;;;;;;;3.19;100.00;97453.75;5126621;27;20102;-74
2023/12/10 08:11:03;;;;;;;100.80;40.88;;;;;;;4.09;100.00;97440.75;5124438;27;20031;-73
2023/12/10 08:13:29;;;;;;;85.55;35.78;;;;;;;5.07;100.00;97422.66;5110190;28;20114;-74
2023/12/10 08:15:54;;;;;;;85.47;37.17;;;;;;;6.73;100.00;97407.06;5129126;27;20550;-74
2023/12/10 08:18:20;;;;;;;79.85;35.38;;;;;;;6.79;100.00;97396.13;5113382;27;20024;-73
2023/12/10 08:20:46;;;;;;;84.20;37.55;;;;;;;7.55;100.00;97397.53;5114005;27;20027;-78
2023/12/10 08:23:11;;;;;;;118.50;58.72;;;;;;;8.04;100.00;97385.97;5090226;28;20031;-75
2023/12/10 08:25:37;;;;;;;106.28;44.15;;;;;;;7.58;100.00;97398.22;5120141;27;20047;-77
2023/12/10 08:28:03;;;;;;;96.28;42.63;;;;;;;6.46;100.00;97397.75;5118059;27;20098;-77
2023/12/10 08:30:28;;;;;;;90.22;40.28;;;;;;;5.07;100.00;97404.09;5115288;27;20037;-76
2023/12/10 08:32:54;;;;;;;98.78;40.40;;;;;;;4.09;100.00;97416.94;5120617;27;20038;-77
2023/12/10 08:35:20;;;;;;;83.80;36.95;;;;;;;3.53;100.00;97411.13;5121744;27;20035;-77
2023/12/10 08:37:45;;;;;;;92.53;35.08;;;;;;;3.01;100.00;97417.38;5112021;27;20031;-75
2023/12/10 08:40:11;;;;;;;83.43;33.30;;;;;;;2.80;100.00;97408.38;5105268;28;20348;-73
2023/12/10 08:42:37;;;;;;;91.85;36.90;;;;;;;3.35;100.00;97412.66;5098519;28;20388;-75
2023/12/10 08:45:03;;;;;;;89.75;37.65;;;;;;;3.55;100.00;97399.56;5107367;28;20035;-75
2023/12/10 08:47:28;;;;;;;87.75;34.53;;;;;;;4.12;100.00;97401.78;5116026;27;20027;-75
2023/12/10 08:49:54;;;;;;;99.45;38.63;;;;;;;5.56;100.00;97395.75;5121579;27;20025;-75
2023/12/10 08:52:21;;;;;;;112.03;43.92;;;;;;;6.20;100.00;97374.22;5112775;27;20031;-76
2023/12/10 08:54:46;;;;;;;85.32;37.17;;;;;;;6.74;100.00;97370.66;5097784;27;20027;-78
2023/12/10 08:57:13;;;;;;;92.03;39.33;;;;;;;7.37;100.00;97355.91;5114425;27;20059;-77
2023/12/10 08:59:39;;;;;;;69.53;32.22;;;;;;;6.38;100.00;97354.75;5108927;28;20054;-77
2023/12/10 09:02:06;;;;;;;132.43;57.70;;;;;;;5.96;100.00;97368.28;5110225;28;20050;-78
2023/12/10 09:04:32;;;;;;;121.28;54.88;;;;;;;5.93;100.00;97361.31;5121070;28;20359;-78
2023/12/10 09:06:58;;;;;;;105.80;49.72;;;;;;;5.51;100.00;97363.22;5093328;28;20084;-77
2023/12/10 09:09:23;;;;;;;146.80;63.15;;;;;;;5.27;100.00;97354.59;5122929;28;20489;-76
2023/12/10 09:11:49;;;;;;;127.40;62.35;;;;;;;5.09;100.00;97343.91;5109937;28;20028;-76
2023/12/10 09:14:15;;;;;;;160.10;74.43;;;;;;;4.46;100.00;97358.13;5109889;28;20066;-75
2023/12/10 09:16:41;;;;;;;125.70;56.08;;;;;;;5.18;100.00;97343.53;5107913;28;20030;-77
2023/12/10 09:19:07;;;;;;;90.05;43.85;;;;;;;5.82;100.00;97341.47;5113305;28;20038;-79
2023/12/10 09:21:33;;;;;;;76.82;37.83;;;;;;;6.09;100.00;97331.41;5110707;28;20045;-78
2023/12/10 09:23:58;;;;;;;78.88;37.75;;;;;;;5.95;100.00;97311.69;5121918;28;20521;-77
2023/12/10 09:26:25;;;;;;;88.30;39.33;;;;;;;6.14;100.00;97316.09;5096844;28;20462;-77
2023/12/10 09:28:50;;;;;;;95.47;38.47;;;;;;;6.59;100.00;97321.81;5107100;28;20031;-78
2023/12/10 09:31:16;;;;;;;70.38;34.33;;;;;;;6.61;100.00;97321.75;5091170;28;20038;-77
2023/12/10 09:33:42;;;;;;;97.32;44.40;;;;;;;6.18;100.00;97337.13;5101557;28;20047;-83
2023/12/10 09:36:08;;;;;;;65.50;29.20;;;;;;;5.87;100.00;97329.78;5105108;28;20031;-83
2023/12/10 09:38:33;;;;;;;61.85;27.08;;;;;;;5.93;100.00;97334.78;5106308;28;20563;-82
2023/12/10 09:40:59;;;;;;;59.58;28.33;;;;;;;6.05;100.00;97328.03;5123967;27;20091;-82
2023/12/10 09:43:24;;;;;;;61.92;29.70;;;;;;;5.88;100.00;97334.13;5130640;27;20102;-82
2023/12/10 09:45:50;;;;;;;56.10;28.13;;;;;;;6.04;100.00;97338.72;5120167;27;20490;-81
2023/12/10 09:48:17;;;;;;;72.75;32.67;;;;;;;5.96;100.00;97347.91;5114435;27;20027;-81
2023/12/10 09:50:43;;;;;;;65.53;30.92;;;;;;;5.60;100.00;97346.91;5105613;27;20413;-82
2023/12/10 09:53:08;;;;;;;62.08;30.65;;;;;;;5.46;100.00;97349.31;5097347;28;20031;-79
2023/12/10 09:55:35;;;;;;;62.17;28.58;;;;;;;5.30;100.00;97349.16;5106773;27;20139;-82
2023/12/10 09:58:02;;;;;;;74.35;37.88;;;;;;;5.41;100.00;97330.94;5114111;27;20036;-81
2023/12/10 10:00:28;;;;;;;77.45;35.90;;;;;;;5.57;100.00;97336.44;5118745;27;20031;-76
2023/12/10 10:03:01;;;;;;;68.05;31.80;;;;;;;5.42;100.00;97340.63;5117428;27;20027;-77
2023/12/10 10:05:27;;;;;;;72.45;34.85;;;;;;;5.23;100.00;97339.72;5125833;27;20505;-79
2023/12/10 10:07:53;;;;;;;81.32;36.05;;;;;;;5.27;100.00;97332.50;5105334;28;20022;-78
2023/12/10 10:10:22;;;;;;;90.07;39.03;;;;;;;5.40;100.00;97323.09;5106368;27;20031;-79
2023/12/10 10:12:48;;;;;;;108.03;46.03;;;;;;;5.65;100.00;97334.31;5097827;27;20427;-78
2023/12/10 10:15:14;;;;;;;240.23;98.07;;;;;;;5.52;100.00;97335.78;5109297;28;20131;-78
2023/12/10 10:17:42;;;;;;;116.05;54.05;;;;;;;5.56;100.00;97334.72;5099190;28;20546;-78
2023/12/10 10:20:09;;;;;;;106.28;49.80;;;;;;;5.30;100.00;97332.38;5113741;27;20058;-78
2023/12/10 10:22:35;;;;;;;95.32;46.00;;;;;;;5.21;100.00;97325.69;5099713;27;20034;-80
2023/12/10 10:25:02;;;;;;;57.25;28.15;;;;;;;4.97;100.00;97333.84;5101405;27;20106;-79
2023/12/10 10:27:28;;;;;;;61.20;24.90;;;;;;;4.84;100.00;97334.38;5098122;27;20435;-79
2023/12/10 10:29:54;;;;;;;45.58;21.45;;;;;;;4.81;100.00;97342.47;5096996;28;20118;-79
2023/12/10 10:32:21;;;;;;;39.00;19.75;;;;;;;4.86;100.00;97337.81;5109112;27;20035;-79
2023/12/10 10:34:47;;;;;;;40.13;20.25;;;;;;;5.23;100.00;97344.19;5097987;28;20035;-79
2023/12/10 10:37:15;;;;;;;39.53;18.90;;;;;;;5.37;100.00;97339.13;5105388;27;20027;-78
2023/12/10 10:39:44;;;;;;;36.25;18.90;;;;;;;5.44;100.00;97330.81;5106039;27;20522;-79
2023/12/10 10:42:11;;;;;;;28.70;14.73;;;;;;;5.67;100.00;97334.22;5120330;27;20027;-80
2023/12/10 10:44:41;;;;;;;33.45;16.88;;;;;;;5.61;100.00;97327.41;5122606;27;20413;-80
2023/12/10 10:47:07;;;;;;;37.88;19.42;;;;;;;5.34;100.00;97336.63;5095878;27;20035;-80
2023/12/10 10:49:45;;;;;;;136.02;65.28;;;;;;;5.70;100.00;97342.91;5111642;27;20430;-79
2023/12/10 10:52:20;;;;;;;43.53;20.00;;;;;;;5.56;100.00;97328.56;5100756;28;20031;-80
2023/12/10 10:54:47;;;;;;;46.70;20.92;;;;;;;5.64;100.00;97332.56;5092652;28;20494;-80
2023/12/10 10:57:13;;;;;;;42.38;21.80;;;;;;;5.60;100.00;97330.16;5104639;27;20058;-82
2023/12/10 10:59:38;;;;;;;34.40;17.50;;;;;;;5.70;100.00;97326.97;5104966;27;20033;-75
2023/12/10 11:02:08;;;;;;;42.92;21.20;;;;;;;5.82;100.00;97321.09;5129136;27;20106;-77
2023/12/10 11:04:35;;;;;;;45.10;23.95;;;;;;;5.90;100.00;97320.78;5098571;28;20089;-76
2023/12/10 11:07:02;;;;;;;38.47;19.90;;;;;;;5.81;100.00;97318.53;5091483;28;20466;-77